Saturday, April 25, 2015, 3:42 PM EDT

KOKV, Winchester Regional

Location: Winchester, VA, United States Lat: 39.15
Local Time: 3:42 PM EDT (19:42 GMT) Lon: -78.15
Time Zone: US/Eastern Elev: 728 ft

Show me the last for .
Show Decoded

2015-04-25 15:15 METAR KOKV 251915Z AUTO 17003KT 10SM OVC070 10/M08 A2982 RMK AO2 =
2015-04-25 14:55 METAR KOKV 251855Z AUTO 12003KT 10SM OVC070 10/M08 A2983 RMK AO2 =
2015-04-25 14:35 METAR KOKV 251835Z AUTO 10003KT 10SM OVC070 10/M08 A2983 RMK AO2 =
2015-04-25 14:15 METAR KOKV 251815Z AUTO 00000KT 10SM OVC070 10/M08 A2984 RMK AO2 =
2015-04-25 13:55 METAR KOKV 251755Z AUTO 15004KT 10SM OVC070 10/M08 A2985 RMK AO2 =
2015-04-25 13:35 METAR KOKV 251735Z AUTO 16003KT 10SM OVC070 09/M07 A2987 RMK AO2 =
2015-04-25 13:15 METAR KOKV 251715Z AUTO 00000KT 10SM OVC070 09/M08 A2988 RMK AO2 =
2015-04-25 12:55 METAR KOKV 251655Z AUTO 18003KT 10SM OVC080 08/M07 A2989 RMK AO2 =
2015-04-25 12:35 METAR KOKV 251635Z AUTO 00000KT 10SM OVC080 08/M08 A2990 RMK AO2 =
2015-04-25 12:15 METAR KOKV 251615Z AUTO 00000KT 10SM OVC080 08/M08 A2991 RMK AO2 =
2015-04-25 11:55 METAR KOKV 251555Z AUTO 00000KT 10SM OVC080 08/M07 A2991 RMK AO2 =
2015-04-25 11:35 METAR KOKV 251535Z AUTO 16003KT 10SM OVC080 08/M09 A2992 RMK AO2 =
2015-04-25 11:15 METAR KOKV 251515Z AUTO 00000KT 10SM OVC080 08/M10 A2993 RMK AO2 =
2015-04-25 10:55 METAR KOKV 251455Z AUTO 00000KT 10SM OVC090 08/M09 A2993 RMK AO2 =
2015-04-25 10:35 METAR KOKV 251435Z AUTO 00000KT 10SM OVC090 08/M07 A2994 RMK AO2 =
2015-04-25 10:15 METAR KOKV 251415Z AUTO 32005KT 10SM OVC090 08/M07 A2995 RMK AO2 =
2015-04-25 09:55 METAR KOKV 251355Z AUTO 01004KT 10SM OVC090 08/M08 A2996 RMK AO2 =
2015-04-25 09:35 METAR KOKV 251335Z AUTO 00000KT 10SM SCT090 BKN120 08/M12 A2996 RMK AO2 =
2015-04-25 09:15 METAR KOKV 251315Z AUTO 03003KT 10SM OVC110 07/M12 A2998 RMK AO2 =
2015-04-25 08:55 METAR KOKV 251255Z AUTO 00000KT 10SM OVC100 07/M11 A2998 RMK AO2 =
2015-04-25 08:35 METAR KOKV 251235Z AUTO 07003KT 10SM OVC100 07/M11 A2997 RMK AO2 =
2015-04-25 08:15 METAR KOKV 251215Z AUTO 00000KT 10SM SCT080 OVC100 07/M10 A2998 RMK AO2 =
2015-04-25 07:55 METAR KOKV 251155Z AUTO 00000KT 10SM OVC080 06/M11 A2998 RMK AO2 =
2015-04-25 07:35 METAR KOKV 251135Z AUTO 36003KT 10SM OVC080 06/M11 A2998 RMK AO2 =
2015-04-25 07:15 METAR KOKV 251115Z AUTO 00000KT 10SM OVC090 06/M10 A2997 RMK AO2 =
2015-04-25 06:55 METAR KOKV 251055Z AUTO 00000KT 10SM OVC090 07/M12 A2997 RMK AO2 =
2015-04-25 06:35 METAR KOKV 251035Z AUTO 36003KT 10SM OVC090 06/M10 A2997 RMK AO2 =
2015-04-25 06:15 METAR KOKV 251015Z AUTO 00000KT 10SM OVC090 06/M09 A2996 RMK AO2 =
2015-04-25 05:55 METAR KOKV 250955Z AUTO 00000KT 10SM OVC090 07/M10 A2996 RMK AO2 =
2015-04-25 05:35 METAR KOKV 250935Z AUTO 00000KT 10SM OVC090 07/M10 A2996 RMK AO2 =
2015-04-25 05:15 METAR KOKV 250915Z AUTO 00000KT 10SM OVC090 07/M10 A2996 RMK AO2 =
2015-04-25 04:55 METAR KOKV 250855Z AUTO 00000KT 10SM OVC090 07/M10 A2996 RMK AO2 =
2015-04-25 04:35 METAR KOKV 250835Z AUTO 00000KT 10SM OVC100 07/M10 A2995 RMK AO2 =
2015-04-25 04:15 METAR KOKV 250815Z AUTO 35003KT 10SM OVC100 06/M07 A2996 RMK AO2 =
2015-04-25 03:55 METAR KOKV 250755Z AUTO 34003KT 10SM BKN110 06/M07 A2997 RMK AO2 =
2015-04-25 03:35 METAR KOKV 250735Z AUTO 35003KT 10SM BKN120 06/M05 A2997 RMK AO2 =
2015-04-25 03:15 METAR KOKV 250715Z AUTO 00000KT 10SM CLR 04/M05 A2997 RMK AO2 =
2015-04-25 02:55 METAR KOKV 250655Z AUTO 00000KT 10SM CLR 04/M05 A2997 RMK AO2 =
2015-04-25 02:35 METAR KOKV 250635Z AUTO 00000KT 10SM CLR 03/M04 A2997 RMK AO2 =
2015-04-25 02:15 METAR KOKV 250615Z AUTO 00000KT 10SM CLR 05/M06 A2997 RMK AO2 =
2015-04-25 01:55 METAR KOKV 250555Z AUTO 00000KT 10SM CLR 05/M06 A2997 RMK AO2 =
2015-04-25 01:35 METAR KOKV 250535Z AUTO 00000KT 10SM CLR 07/M07 A2997 RMK AO2 =
2015-04-25 01:15 METAR KOKV 250515Z AUTO 02004KT 10SM CLR 06/M06 A2997 RMK AO2 =
2015-04-25 00:55 METAR KOKV 250455Z AUTO 00000KT 10SM CLR 06/M06 A2997 RMK AO2 =
2015-04-25 00:35 METAR KOKV 250435Z AUTO 00000KT 10SM CLR 06/M06 A2996 RMK AO2 =
2015-04-25 00:15 METAR KOKV 250415Z AUTO 14003KT 10SM CLR 06/M05 A2996 RMK AO2 =
2015-04-24 23:55 METAR KOKV 250355Z AUTO 15003KT 10SM CLR 07/M06 A2996 RMK AO2 =
2015-04-24 23:35 METAR KOKV 250335Z AUTO 30003KT 10SM CLR 09/M08 A2995 RMK AO2 =
2015-04-24 23:15 METAR KOKV 250315Z AUTO 30004KT 10SM CLR 10/M10 A2996 RMK AO2 =
2015-04-24 22:55 METAR KOKV 250255Z AUTO 30005KT 10SM CLR 11/M10 A2996 RMK AO2 =
2015-04-24 22:35 METAR KOKV 250235Z AUTO 30010KT 10SM CLR 10/M10 A2996 RMK AO2 =
2015-04-24 22:15 METAR KOKV 250215Z AUTO 31009G15KT 10SM CLR 10/M10 A2996 RMK AO2 =
2015-04-24 21:35 METAR KOKV 250135Z AUTO 30009KT 10SM CLR 11/M10 A2996 RMK AO2 =
2015-04-24 21:15 METAR KOKV 250115Z AUTO 29008KT 10SM CLR 09/M09 A2995 RMK AO2 =
2015-04-24 20:35 METAR KOKV 250035Z AUTO 31009KT 10SM CLR 11/M11 A2994 RMK AO2 =
2015-04-24 20:15 METAR KOKV 250015Z AUTO 32007KT 10SM CLR 11/M11 A2994 RMK AO2 =
2015-04-24 19:55 METAR KOKV 242355Z AUTO 32012KT 10SM CLR 12/M13 A2993 RMK AO2 =
2015-04-24 19:35 METAR KOKV 242335Z AUTO 31009G15KT 10SM CLR 13/M13 A2993 RMK AO2 =
2015-04-24 19:15 METAR KOKV 242315Z AUTO 32010G17KT 10SM CLR 13/M14 A2993 RMK AO2 =
2015-04-24 18:55 METAR KOKV 242255Z AUTO 31011G18KT 10SM CLR 14/M14 A2993 RMK AO2 =
2015-04-24 18:35 METAR KOKV 242235Z AUTO 31011KT 10SM CLR 15/M15 A2993 RMK AO2 =
2015-04-24 18:15 METAR KOKV 242215Z AUTO 31012G19KT 10SM CLR 15/M15 A2993 RMK AO2 =
2015-04-24 17:55 METAR KOKV 242155Z AUTO 28013G20KT 10SM CLR 15/M15 A2992 RMK AO2 =
2015-04-24 17:35 METAR KOKV 242135Z AUTO 29020G26KT 10SM CLR 15/M16 A2992 RMK AO2 =
2015-04-24 17:15 METAR KOKV 242115Z AUTO 30020G25KT 10SM CLR 15/M16 A2992 RMK AO2 =
2015-04-24 16:35 METAR KOKV 242035Z AUTO 28019G24KT 10SM CLR 15/M15 A2992 RMK AO2 =
2015-04-24 16:15 METAR KOKV 242015Z AUTO 30017G25KT 10SM CLR 15/M15 A2992 RMK AO2 =

Support USWX by starting your Amazon purchase here.